Time;durP1;ratioP1;P1;durP2;ratioP2;P2;SDS_P1;SDS_P2;PMS_P1;PMS_P2;Temp;Humidity;BMP_temperature;BMP_pressure;BME280_temperature;BME280_humidity;BME280_pressure;Samples;Min_cycle;Max_cycle;Signal;HPM_P1;HPM_P2
2024/04/07 00:00:45;;;;;;;0.60;0.50;;;20.20;71.10;;;;;;5066397;28;20193;-86
2024/04/07 00:03:13;;;;;;;0.50;0.40;;;20.20;72.70;;;;;;5065194;28;20466;-86
2024/04/07 00:05:40;;;;;;;0.50;0.40;;;20.20;70.70;;;;;;5066039;28;20439;-85
2024/04/07 00:08:07;;;;;;;0.73;0.70;;;20.30;70.50;;;;;;5065835;28;20823;-85
2024/04/07 00:10:38;;;;;;;0.50;0.40;;;20.30;73.40;;;;;;5066744;28;20472;-86
2024/04/07 00:13:05;;;;;;;0.50;0.40;;;20.30;72.40;;;;;;5066244;28;20440;-87
2024/04/07 00:15:31;;;;;;;0.70;0.43;;;20.30;70.90;;;;;;5066443;28;20446;-85
2024/04/07 00:17:59;;;;;;;0.50;0.40;;;20.30;72.50;;;;;;5076075;28;20455;-85
2024/04/07 00:20:25;;;;;;;0.50;0.40;;;20.20;70.70;;;;;;5076876;28;20453;-85
2024/04/07 00:22:51;;;;;;;1.77;0.70;;;20.30;70.60;;;;;;5077552;28;20491;-85
2024/04/07 00:25:18;;;;;;;0.70;0.70;;;20.30;71.60;;;;;;5068428;28;20195;-86
2024/04/07 00:27:47;;;;;;;0.50;0.30;;;20.30;70.40;;;;;;5069823;28;20502;-84
2024/04/07 00:30:14;;;;;;;1.10;0.40;;;20.30;71.70;;;;;;5058681;28;20559;-85
2024/04/07 00:32:42;;;;;;;0.70;0.67;;;20.30;71.30;;;;;;5056980;28;20440;-83
2024/04/07 00:35:08;;;;;;;3.80;0.87;;;20.20;70.60;;;;;;5057746;28;20439;-85
2024/04/07 00:37:37;;;;;;;0.70;0.70;;;20.20;70.40;;;;;;5063422;28;20468;-85
2024/04/07 00:40:03;;;;;;;0.50;0.40;;;20.20;70.70;;;;;;5064657;28;20435;-85
2024/04/07 00:42:29;;;;;;;1.03;0.70;;;20.20;70.70;;;;;;5063366;28;20875;-85
2024/04/07 00:44:57;;;;;;;1.43;0.70;;;20.10;71.70;;;;;;5062433;28;20445;-86
2024/04/07 00:47:24;;;;;;;0.60;0.60;;;20.10;71.20;;;;;;5061947;28;20460;-85
2024/04/07 00:49:52;;;;;;;0.50;0.30;;;20.10;71.00;;;;;;5063161;28;20439;-85
2024/04/07 00:52:21;;;;;;;0.67;0.67;;;20.10;72.10;;;;;;5062071;28;20435;-84
2024/04/07 00:54:48;;;;;;;0.50;0.40;;;20.10;71.80;;;;;;5063442;28;20470;-86
2024/04/07 00:57:17;;;;;;;0.50;0.40;;;20.10;72.70;;;;;;5063301;28;20440;-85
2024/04/07 00:59:44;;;;;;;0.87;0.87;;;20.10;72.20;;;;;;5063231;28;20936;-85
2024/04/07 01:02:13;;;;;;;0.50;0.30;;;20.10;71.20;;;;;;5062995;28;20440;-86
2024/04/07 01:04:40;;;;;;;0.50;0.40;;;20.10;71.40;;;;;;5062056;28;20437;-86
2024/04/07 01:07:08;;;;;;;1.30;1.20;;;20.10;72.70;;;;;;5062976;28;20884;-85
2024/04/07 01:09:34;;;;;;;1.07;0.90;;;20.10;73.40;;;;;;5071891;28;20414;-85
2024/04/07 01:12:11;;;;;;;0.60;0.50;;;20.10;74.00;;;;;;5076317;28;20503;-85
2024/04/07 01:14:40;;;;;;;0.50;0.40;;;20.10;72.10;;;;;;5077866;28;20181;-85
2024/04/07 01:17:09;;;;;;;1.23;0.60;;;20.10;72.10;;;;;;5069205;28;20439;-86
2024/04/07 01:19:36;;;;;;;0.93;0.83;;;20.10;73.40;;;;;;5066228;28;20523;-84
2024/04/07 01:22:03;;;;;;;0.60;0.50;;;20.10;73.80;;;;;;5065153;28;20801;-85
2024/04/07 01:24:33;;;;;;;1.10;0.50;;;20.10;72.30;;;;;;5064581;28;20441;-85
2024/04/07 01:27:00;;;;;;;0.70;0.70;;;20.10;73.30;;;;;;5063533;28;20440;-85
2024/04/07 01:29:26;;;;;;;0.50;0.40;;;20.10;72.70;;;;;;5065510;28;20446;-86
2024/04/07 01:31:54;;;;;;;4.73;2.40;;;20.00;73.80;;;;;;5066202;28;20473;-85
2024/04/07 01:34:20;;;;;;;0.50;0.40;;;20.00;74.30;;;;;;5066142;28;20202;-85
2024/04/07 01:36:48;;;;;;;0.60;0.60;;;20.00;73.80;;;;;;5062258;28;20439;-85
2024/04/07 01:39:16;;;;;;;0.67;0.67;;;19.90;73.80;;;;;;5062420;28;20505;-85
2024/04/07 01:41:44;;;;;;;0.80;0.50;;;19.90;74.10;;;;;;5062469;28;20513;-85
2024/04/07 01:44:10;;;;;;;0.50;0.30;;;19.90;75.70;;;;;;5062867;28;20505;-85
2024/04/07 01:46:37;;;;;;;0.50;0.40;;;19.90;74.60;;;;;;5060990;28;20469;-85
2024/04/07 01:49:03;;;;;;;0.60;0.50;;;20.00;74.50;;;;;;5062360;28;20222;-85
2024/04/07 01:51:29;;;;;;;0.50;0.50;;;20.00;75.20;;;;;;5062231;28;20477;-85
2024/04/07 01:53:56;;;;;;;0.83;0.50;;;20.00;74.40;;;;;;5062584;28;20470;-86
2024/04/07 01:56:23;;;;;;;4.97;0.83;;;20.00;76.30;;;;;;5061296;28;20446;-85
2024/04/07 01:58:51;;;;;;;0.60;0.60;;;20.00;75.40;;;;;;5060307;28;20516;-86
2024/04/07 02:01:18;;;;;;;0.73;0.70;;;20.00;75.00;;;;;;5061998;28;20466;-85
2024/04/07 02:03:43;;;;;;;1.53;1.43;;;20.00;74.50;;;;;;5060255;28;20945;-83
2024/04/07 02:06:12;;;;;;;0.50;0.40;;;20.00;75.00;;;;;;5061993;28;20483;-86
2024/04/07 02:08:38;;;;;;;0.50;0.40;;;20.00;75.40;;;;;;5063000;28;20220;-85
2024/04/07 02:11:05;;;;;;;0.50;0.43;;;20.00;75.90;;;;;;5061246;28;20475;-86
2024/04/07 02:13:31;;;;;;;0.83;0.60;;;19.90;76.10;;;;;;5062043;28;20456;-84
2024/04/07 02:16:02;;;;;;;0.50;0.40;;;19.90;76.80;;;;;;5062944;28;20433;-85
2024/04/07 02:18:27;;;;;;;0.70;0.57;;;19.90;77.80;;;;;;5061898;28;20984;-85
2024/04/07 02:20:54;;;;;;;0.50;0.40;;;19.80;78.30;;;;;;5061893;28;20435;-85
2024/04/07 02:23:21;;;;;;;0.60;0.50;;;19.80;79.00;;;;;;5061779;28;20201;-85
2024/04/07 02:25:48;;;;;;;0.50;0.40;;;19.70;80.00;;;;;;5061316;28;21158;-85
2024/04/07 02:28:14;;;;;;;0.60;0.50;;;19.60;80.60;;;;;;5062219;28;20461;-85
2024/04/07 02:30:41;;;;;;;21.53;1.37;;;19.60;81.80;;;;;;5060990;28;20470;-86
2024/04/07 02:33:09;;;;;;;0.50;0.30;;;19.50;83.90;;;;;;5061963;28;20468;-85
2024/04/07 02:35:36;;;;;;;24.83;3.30;;;19.40;83.80;;;;;;5062383;28;20509;-86
2024/04/07 02:38:02;;;;;;;0.50;0.30;;;19.30;85.00;;;;;;5062277;28;20493;-86
2024/04/07 02:40:29;;;;;;;0.50;0.40;;;19.30;86.60;;;;;;5062786;28;20440;-85
2024/04/07 02:42:55;;;;;;;6.93;2.73;;;19.20;88.10;;;;;;5062011;28;20449;-85
2024/04/07 02:48:08;;;;;;;0.50;0.30;;;19.10;92.60;;;;;;5065481;28;20460;-85
2024/04/07 02:50:36;;;;;;;0.60;0.60;;;19.00;95.10;;;;;;5067365;28;20468;-85
2024/04/07 02:53:02;;;;;;;0.50;0.40;;;19.00;98.50;;;;;;5068837;28;20499;-84
2024/04/07 02:55:30;;;;;;;1.23;1.23;;;18.90;99.90;;;;;;5068575;28;20855;-84
2024/04/07 02:57:56;;;;;;;4.40;0.93;;;18.80;99.90;;;;;;5053666;28;20465;-84
2024/04/07 03:00:23;;;;;;;0.50;0.40;;;18.70;99.90;;;;;;5053587;28;20468;-84
2024/04/07 03:02:49;;;;;;;0.50;0.40;;;18.70;99.90;;;;;;5053107;28;20440;-85
2024/04/07 03:05:17;;;;;;;0.50;0.40;;;18.60;99.90;;;;;;5053015;28;20469;-84
2024/04/07 03:07:46;;;;;;;1.13;1.03;;;18.50;99.90;;;;;;5056293;28;20552;-84
2024/04/07 03:10:16;;;;;;;1.33;1.00;;;18.50;99.90;;;;;;5060194;28;20514;-85
2024/04/07 03:12:42;;;;;;;0.50;0.30;;;18.40;99.90;;;;;;5060480;28;20461;-83
2024/04/07 03:15:10;;;;;;;1.53;1.43;;;18.30;99.90;;;;;;5061800;28;20469;-83
2024/04/07 03:17:36;;;;;;;0.50;0.30;;;18.30;99.90;;;;;;5060315;28;20461;-84
2024/04/07 03:20:05;;;;;;;0.50;0.40;;;18.20;99.90;;;;;;5060821;28;20447;-84
2024/04/07 03:22:32;;;;;;;4.00;0.67;;;18.20;99.90;;;;;;5060436;28;20450;-84
2024/04/07 03:24:59;;;;;;;3.13;2.57;;;18.10;99.90;;;;;;5060514;28;20495;-84
2024/04/07 03:27:26;;;;;;;0.60;0.50;;;18.10;99.90;;;;;;5062595;28;20982;-84
2024/04/07 03:29:54;;;;;;;1.33;0.70;;;18.10;99.90;;;;;;5061909;28;20436;-83
2024/04/07 03:32:21;;;;;;;0.50;0.30;;;18.00;99.90;;;;;;5060315;28;20480;-84
2024/04/07 03:34:48;;;;;;;0.50;0.40;;;18.00;99.90;;;;;;5059881;28;20793;-85
2024/04/07 03:37:16;;;;;;;2.00;0.70;;;18.00;99.90;;;;;;5062952;28;20437;-84
2024/04/07 03:39:46;;;;;;;8.00;0.60;;;17.90;99.90;;;;;;5059031;28;20513;-83
2024/04/07 03:42:13;;;;;;;1.63;1.53;;;17.90;99.90;;;;;;5058064;28;20862;-84
2024/04/07 03:44:40;;;;;;;0.50;0.40;;;17.80;99.90;;;;;;5059473;28;20433;-83
2024/04/07 03:47:07;;;;;;;0.60;0.50;;;17.80;99.90;;;;;;5059071;28;20487;-83
2024/04/07 03:49:36;;;;;;;0.50;0.40;;;17.70;99.90;;;;;;5059377;28;20444;-84
2024/04/07 03:52:03;;;;;;;0.60;0.50;;;17.70;99.90;;;;;;5059474;28;20516;-84
2024/04/07 03:54:30;;;;;;;0.50;0.40;;;17.70;99.90;;;;;;5058799;28;20442;-84
2024/04/07 03:57:00;;;;;;;1.47;1.33;;;17.70;99.90;;;;;;5059213;28;20544;-84
2024/04/07 03:59:27;;;;;;;0.50;0.30;;;17.60;99.90;;;;;;5058891;28;21001;-83
2024/04/07 04:01:56;;;;;;;0.50;0.30;;;17.60;99.90;;;;;;5073428;28;20438;-83
2024/04/07 04:04:22;;;;;;;0.50;0.50;;;17.50;99.90;;;;;;5079026;28;20430;-84
2024/04/07 04:06:51;;;;;;;0.50;0.40;;;17.50;99.90;;;;;;5072496;28;20480;-86
2024/04/07 04:09:16;;;;;;;0.50;0.40;;;17.50;99.90;;;;;;5065243;28;20459;-86
2024/04/07 04:11:45;;;;;;;0.50;0.40;;;17.50;99.90;;;;;;5063878;28;20480;-85
2024/04/07 04:14:12;;;;;;;0.50;0.40;;;17.40;99.90;;;;;;5064073;28;20196;-85
2024/04/07 04:16:41;;;;;;;0.50;0.40;;;17.40;99.90;;;;;;5062724;28;20883;-85
2024/04/07 04:19:09;;;;;;;3.90;0.70;;;17.40;99.90;;;;;;5063680;28;20457;-85
2024/04/07 04:21:35;;;;;;;0.60;0.40;;;17.30;99.90;;;;;;5064488;28;20492;-85
2024/04/07 04:24:02;;;;;;;0.50;0.30;;;17.30;99.90;;;;;;5063461;28;20441;-85
2024/04/07 04:26:28;;;;;;;0.60;0.40;;;17.30;99.90;;;;;;5063022;28;20229;-85
2024/04/07 04:28:56;;;;;;;0.50;0.30;;;17.20;99.90;;;;;;5064232;28;20460;-84
2024/04/07 04:31:24;;;;;;;0.50;0.40;;;17.20;99.90;;;;;;5063903;28;20476;-85
2024/04/07 04:33:53;;;;;;;0.50;0.40;;;17.10;99.90;;;;;;5062699;28;20441;-85
2024/04/07 04:36:19;;;;;;;0.50;0.40;;;17.10;99.90;;;;;;5064497;28;20449;-86
2024/04/07 04:38:46;;;;;;;0.50;0.40;;;17.00;99.90;;;;;;5063027;28;20468;-86
2024/04/07 04:41:12;;;;;;;0.50;0.40;;;17.00;99.90;;;;;;5063109;28;20447;-84
2024/04/07 04:43:39;;;;;;;0.50;0.37;;;17.00;99.90;;;;;;5057381;28;20437;-84
2024/04/07 04:46:07;;;;;;;0.50;0.40;;;17.00;99.90;;;;;;5057021;28;20444;-84
2024/04/07 04:48:36;;;;;;;0.50;0.50;;;17.00;99.90;;;;;;5057750;28;20528;-84
2024/04/07 04:51:03;;;;;;;0.50;0.40;;;16.90;99.90;;;;;;5057140;28;20483;-84
2024/04/07 04:53:30;;;;;;;0.50;0.40;;;16.90;99.90;;;;;;5058331;28;20468;-83
2024/04/07 04:55:58;;;;;;;29.47;2.87;;;16.90;99.90;;;;;;5057538;28;20449;-83
2024/04/07 04:58:25;;;;;;;0.73;0.73;;;16.90;99.90;;;;;;5056865;28;20457;-84
2024/04/07 05:00:51;;;;;;;0.50;0.40;;;16.90;99.90;;;;;;5058152;28;20943;-85
2024/04/07 05:03:18;;;;;;;0.70;0.50;;;16.90;99.90;;;;;;5059401;28;20433;-84
2024/04/07 05:05:45;;;;;;;0.50;0.40;;;16.90;99.90;;;;;;5058037;28;20532;-83
2024/04/07 05:08:12;;;;;;;0.60;0.60;;;16.90;99.90;;;;;;5055670;28;20473;-83
2024/04/07 05:10:40;;;;;;;0.70;0.70;;;17.00;99.90;;;;;;5056780;28;20796;-83
2024/04/07 05:13:06;;;;;;;0.50;0.47;;;17.00;99.90;;;;;;5055217;28;20441;-83
2024/04/07 05:15:32;;;;;;;0.50;0.50;;;16.90;99.90;;;;;;5055158;28;20436;-83
2024/04/07 05:17:59;;;;;;;1.43;0.70;;;17.00;99.90;;;;;;5057131;28;21010;-84
2024/04/07 05:20:26;;;;;;;0.50;0.40;;;17.00;99.90;;;;;;5056147;28;20573;-83
2024/04/07 05:22:56;;;;;;;0.50;0.50;;;17.00;99.90;;;;;;5055746;28;20512;-83
2024/04/07 05:25:21;;;;;;;0.50;0.40;;;17.00;99.90;;;;;;5056682;28;20491;-83
2024/04/07 05:27:48;;;;;;;0.50;0.40;;;17.00;99.90;;;;;;5056512;28;20840;-83
2024/04/07 05:30:14;;;;;;;1.33;0.63;;;17.10;99.90;;;;;;5056453;28;20238;-83
2024/04/07 05:32:41;;;;;;;2.20;0.90;;;17.10;99.90;;;;;;5054990;28;20476;-83
2024/04/07 05:35:08;;;;;;;2.40;0.97;;;17.10;99.90;;;;;;5056189;28;20235;-85
2024/04/07 05:37:35;;;;;;;0.50;0.40;;;17.10;99.90;;;;;;5057466;28;20496;-83
2024/04/07 05:40:05;;;;;;;0.50;0.30;;;17.10;99.90;;;;;;5056272;28;20808;-84
2024/04/07 05:42:33;;;;;;;0.70;0.70;;;17.10;99.90;;;;;;5052718;28;20528;-84
2024/04/07 05:44:59;;;;;;;0.50;0.30;;;17.10;99.90;;;;;;5052566;28;20444;-85
2024/04/07 05:47:25;;;;;;;0.53;0.50;;;17.10;99.90;;;;;;5053140;28;20457;-85
2024/04/07 05:49:53;;;;;;;0.50;0.40;;;17.10;99.90;;;;;;5062025;28;20204;-86
2024/04/07 05:52:20;;;;;;;0.50;0.40;;;17.10;99.90;;;;;;5070803;28;20476;-86
2024/04/07 05:54:46;;;;;;;0.63;0.63;;;17.10;99.90;;;;;;5070337;28;20790;-86
2024/04/07 05:57:17;;;;;;;0.50;0.30;;;17.00;99.90;;;;;;5074895;28;20429;-88
2024/04/07 05:59:47;;;;;;;0.50;0.50;;;16.90;99.90;;;;;;5077661;28;20187;-85
2024/04/07 06:02:14;;;;;;;0.77;0.53;;;16.90;99.90;;;;;;5076225;28;20421;-87
2024/04/07 06:04:43;;;;;;;0.50;0.30;;;16.90;99.90;;;;;;5070638;28;20438;-87
2024/04/07 06:07:10;;;;;;;0.50;0.50;;;17.00;99.90;;;;;;5068303;28;20491;-86
2024/04/07 06:09:35;;;;;;;0.50;0.40;;;17.00;99.90;;;;;;5068252;28;20437;-84
2024/04/07 06:12:03;;;;;;;0.50;0.30;;;17.00;99.90;;;;;;5066514;28;20500;-85
2024/04/07 06:14:31;;;;;;;0.50;0.40;;;17.00;99.90;;;;;;5067565;28;20945;-87
2024/04/07 06:17:01;;;;;;;0.50;0.40;;;17.10;99.90;;;;;;5067573;28;20963;-86
2024/04/07 06:19:27;;;;;;;0.50;0.40;;;17.20;99.90;;;;;;5066671;28;20867;-85
2024/04/07 06:21:57;;;;;;;7.30;3.70;;;17.30;99.90;;;;;;5067283;28;20440;-86
2024/04/07 06:24:23;;;;;;;1.00;0.63;;;17.30;99.90;;;;;;5065689;28;20195;-85
2024/04/07 06:26:50;;;;;;;0.50;0.40;;;17.50;99.90;;;;;;5067090;28;20437;-85
2024/04/07 06:29:16;;;;;;;1.27;1.03;;;17.60;99.90;;;;;;5066642;28;20215;-87
2024/04/07 06:31:44;;;;;;;0.50;0.50;;;17.70;99.90;;;;;;5067159;28;20472;-86
2024/04/07 06:34:10;;;;;;;0.50;0.50;;;17.80;99.90;;;;;;5067263;28;20227;-85
2024/04/07 06:36:37;;;;;;;1.20;1.10;;;17.80;99.90;;;;;;5066583;28;20441;-85
2024/04/07 06:39:04;;;;;;;0.50;0.40;;;17.80;99.90;;;;;;5065835;28;20278;-85
2024/04/07 06:41:31;;;;;;;0.90;0.60;;;17.80;99.90;;;;;;5065821;28;20433;-85
2024/04/07 06:43:57;;;;;;;0.60;0.50;;;17.70;99.90;;;;;;5066763;28;20438;-85
2024/04/07 06:46:24;;;;;;;0.50;0.37;;;17.80;99.90;;;;;;5069049;28;20524;-85
2024/04/07 06:48:53;;;;;;;0.50;0.40;;;17.90;99.90;;;;;;5069518;28;20460;-85
2024/04/07 06:51:20;;;;;;;0.50;0.40;;;18.00;99.90;;;;;;5072136;28;20523;-84
2024/04/07 06:53:47;;;;;;;0.50;0.40;;;18.10;99.90;;;;;;5079963;28;20457;-86
2024/04/07 06:56:14;;;;;;;0.60;0.50;;;18.10;99.90;;;;;;5080651;28;20497;-85
2024/04/07 06:58:40;;;;;;;1.27;0.60;;;18.20;99.90;;;;;;5072389;28;20523;-86
2024/04/07 07:01:07;;;;;;;1.47;1.03;;;18.20;99.90;;;;;;5071432;28;20441;-84
2024/04/07 07:03:33;;;;;;;0.50;0.40;;;18.30;99.90;;;;;;5070040;28;20447;-86
2024/04/07 07:06:01;;;;;;;0.60;0.60;;;18.40;99.90;;;;;;5070574;28;20446;-86
2024/04/07 07:08:28;;;;;;;0.50;0.40;;;18.50;99.90;;;;;;5070060;28;20461;-85
2024/04/07 07:10:59;;;;;;;0.60;0.50;;;18.70;99.90;;;;;;5069283;28;20443;-87
2024/04/07 07:13:29;;;;;;;0.50;0.40;;;18.70;99.90;;;;;;5069007;28;20441;-85
2024/04/07 07:15:56;;;;;;;0.50;0.40;;;18.60;99.90;;;;;;5034242;28;20451;-84
2024/04/07 07:18:26;;;;;;;0.60;0.40;;;18.60;99.90;;;;;;5068372;28;20488;-87
2024/04/07 07:20:52;;;;;;;3.20;1.77;;;18.50;99.90;;;;;;5068897;28;20445;-85
2024/04/07 07:23:21;;;;;;;0.70;0.70;;;18.50;99.90;;;;;;5066522;28;20443;-85
2024/04/07 07:25:47;;;;;;;0.50;0.40;;;18.50;99.90;;;;;;5066912;28;20535;-84
2024/04/07 07:28:14;;;;;;;0.60;0.50;;;18.60;99.90;;;;;;5068192;28;20467;-83
2024/04/07 07:30:39;;;;;;;0.50;0.50;;;18.70;99.90;;;;;;5066156;28;20441;-83
2024/04/07 07:33:06;;;;;;;0.97;0.97;;;18.60;99.90;;;;;;5064874;28;20473;-83
2024/04/07 07:35:34;;;;;;;0.50;0.30;;;18.60;99.90;;;;;;5063334;28;20203;-85
2024/04/07 07:38:01;;;;;;;0.50;0.40;;;18.50;99.90;;;;;;5065927;28;20458;-83
2024/04/07 07:40:29;;;;;;;0.50;0.50;;;18.30;99.90;;;;;;5064334;28;20445;-84
2024/04/07 07:42:56;;;;;;;0.63;0.50;;;18.30;99.90;;;;;;5065400;28;20433;-85
2024/04/07 07:45:23;;;;;;;0.50;0.30;;;18.20;99.90;;;;;;5061313;28;20438;-83
2024/04/07 07:47:53;;;;;;;0.80;0.60;;;18.20;99.90;;;;;;5063428;28;20796;-83
2024/04/07 07:50:19;;;;;;;0.50;0.30;;;18.10;99.90;;;;;;5063004;28;20447;-84
2024/04/07 07:52:46;;;;;;;1.00;0.60;;;18.00;99.90;;;;;;5062204;28;20533;-83
2024/04/07 07:55:12;;;;;;;0.50;0.40;;;18.00;99.90;;;;;;5060530;28;21325;-83
2024/04/07 07:57:43;;;;;;;0.50;0.40;;;18.10;99.90;;;;;;5061070;28;20477;-83
2024/04/07 08:00:11;;;;;;;0.50;0.40;;;18.10;99.90;;;;;;5061244;28;20437;-82
2024/04/07 08:02:40;;;;;;;1.47;0.90;;;18.10;99.90;;;;;;5060240;28;20437;-85
2024/04/07 08:05:07;;;;;;;0.60;0.40;;;18.20;99.90;;;;;;5058760;28;20805;-85
2024/04/07 08:07:33;;;;;;;0.77;0.60;;;18.20;99.90;;;;;;5058691;28;20843;-84
2024/04/07 08:10:02;;;;;;;13.97;1.43;;;18.40;99.90;;;;;;5058323;28;20434;-84
2024/04/07 08:12:28;;;;;;;0.73;0.73;;;18.50;99.90;;;;;;5057912;28;20535;-85
2024/04/07 08:14:57;;;;;;;5.40;0.47;;;18.40;99.90;;;;;;5056005;28;20430;-84
2024/04/07 08:17:24;;;;;;;0.63;0.50;;;18.40;99.90;;;;;;5058470;28;20454;-82
2024/04/07 08:19:53;;;;;;;0.50;0.40;;;18.50;99.90;;;;;;5059221;28;20510;-83
2024/04/07 08:22:20;;;;;;;0.50;0.30;;;18.50;99.90;;;;;;5056453;28;20438;-82
2024/04/07 08:24:47;;;;;;;0.50;0.40;;;18.60;99.90;;;;;;5058773;28;20444;-83
2024/04/07 08:27:14;;;;;;;0.50;0.30;;;18.80;99.90;;;;;;5057876;28;20456;-83
2024/04/07 08:29:41;;;;;;;0.50;0.40;;;18.90;99.90;;;;;;5058072;28;20809;-84
2024/04/07 08:32:08;;;;;;;0.50;0.30;;;19.20;99.90;;;;;;5057191;28;20465;-83
2024/04/07 08:34:36;;;;;;;0.50;0.40;;;19.60;99.90;;;;;;5056402;28;20450;-84
2024/04/07 08:37:03;;;;;;;0.50;0.40;;;20.00;99.90;;;;;;5056031;28;20461;-83
2024/04/07 08:39:30;;;;;;;0.60;0.50;;;20.20;99.90;;;;;;5055795;28;20447;-83
2024/04/07 08:41:59;;;;;;;4.10;0.50;;;20.40;99.90;;;;;;5054100;28;20469;-83
2024/04/07 08:44:27;;;;;;;0.77;0.77;;;20.60;99.90;;;;;;5053805;28;20775;-84
2024/04/07 08:46:57;;;;;;;1.10;0.70;;;20.60;99.90;;;;;;5055320;28;20435;-84
2024/04/07 08:49:28;;;;;;;0.70;0.50;;;20.70;99.90;;;;;;5055461;28;20440;-84
2024/04/07 08:51:55;;;;;;;3.73;1.17;;;20.40;99.90;;;;;;5055417;28;20472;-85
2024/04/07 08:54:26;;;;;;;1.63;0.60;;;20.40;99.90;;;;;;5067579;28;20442;-88
2024/04/07 08:56:53;;;;;;;0.60;0.40;;;20.40;99.90;;;;;;5070039;28;20433;-84
2024/04/07 08:59:23;;;;;;;0.83;0.83;;;20.80;99.90;;;;;;5069434;28;20467;-85
2024/04/07 09:01:52;;;;;;;0.50;0.40;;;21.10;99.90;;;;;;5074040;28;20428;-86
2024/04/07 09:04:21;;;;;;;0.50;0.40;;;21.40;99.90;;;;;;5075860;28;20490;-86
2024/04/07 09:06:48;;;;;;;3.57;0.67;;;21.40;99.90;;;;;;5074415;28;20507;-87
2024/04/07 09:09:16;;;;;;;0.60;0.43;;;22.00;99.90;;;;;;5076838;28;20449;-85
2024/04/07 09:11:49;;;;;;;0.50;0.30;;;22.50;99.90;;;;;;5074535;28;20468;-86
2024/04/07 09:14:16;;;;;;;1.13;1.03;;;22.40;99.90;;;;;;5072695;28;20449;-85
2024/04/07 09:16:42;;;;;;;0.50;0.40;;;22.10;99.90;;;;;;5069464;28;20441;-85
2024/04/07 09:19:09;;;;;;;9.27;0.90;;;22.00;99.90;;;;;;5069770;28;20524;-86
2024/04/07 09:21:36;;;;;;;0.50;0.40;;;21.80;99.90;;;;;;5069948;28;20437;-85
2024/04/07 09:24:11;;;;;;;0.50;0.40;;;22.20;99.90;;;;;;5067859;28;20448;-85
2024/04/07 09:26:38;;;;;;;1.63;1.53;;;22.60;99.90;;;;;;5077185;28;20441;-86
2024/04/07 09:29:05;;;;;;;0.83;0.60;;;22.50;96.70;;;;;;5076786;28;20457;-84
2024/04/07 09:31:31;;;;;;;1.57;0.60;;;22.20;96.60;;;;;;5074139;28;20437;-86
2024/04/07 09:34:01;;;;;;;1.43;0.60;;;22.00;96.90;;;;;;5070767;28;20524;-86
2024/04/07 09:36:28;;;;;;;3.53;0.90;;;22.20;96.50;;;;;;5069796;28;20206;-84
2024/04/07 09:38:57;;;;;;;0.70;0.40;;;22.60;96.80;;;;;;5075948;28;20532;-86
2024/04/07 09:41:27;;;;;;;0.63;0.60;;;22.90;96.90;;;;;;5077293;28;20430;-86
2024/04/07 09:43:54;;;;;;;0.50;0.40;;;22.60;96.00;;;;;;5070269;28;20438;-86
2024/04/07 09:46:22;;;;;;;0.87;0.87;;;22.10;96.80;;;;;;5069013;28;20469;-86
2024/04/07 09:48:50;;;;;;;4.00;1.57;;;21.50;97.10;;;;;;5069388;28;20460;-86
2024/04/07 09:51:20;;;;;;;3.47;1.17;;;21.20;96.70;;;;;;5068054;28;20441;-86
2024/04/07 09:53:53;;;;;;;0.50;0.40;;;21.40;97.50;;;;;;5068184;28;20476;-85
2024/04/07 09:56:23;;;;;;;1.53;0.87;;;21.90;96.70;;;;;;5068768;28;20433;-86
2024/04/07 09:58:54;;;;;;;5.50;0.87;;;22.40;97.30;;;;;;5068279;28;21054;-87
2024/04/07 10:01:22;;;;;;;1.87;1.07;;;22.10;97.20;;;;;;5071526;28;20825;-88
2024/04/07 10:03:49;;;;;;;0.60;0.50;;;22.00;97.00;;;;;;5069578;28;20476;-87
2024/04/07 10:06:17;;;;;;;0.50;0.50;;;21.80;96.60;;;;;;5066127;28;20437;-86
2024/04/07 10:08:43;;;;;;;0.50;0.40;;;21.60;96.80;;;;;;5065014;28;20463;-85
2024/04/07 10:11:16;;;;;;;0.50;0.50;;;21.40;96.90;;;;;;5067440;28;20456;-86
2024/04/07 10:13:43;;;;;;;0.50;0.30;;;21.30;96.10;;;;;;5066684;28;20482;-85
2024/04/07 10:16:11;;;;;;;0.50;0.37;;;21.10;95.80;;;;;;5061515;28;20436;-84
2024/04/07 10:18:37;;;;;;;0.60;0.50;;;20.80;95.70;;;;;;5062785;28;20461;-84
2024/04/07 10:21:06;;;;;;;0.50;0.30;;;20.70;95.90;;;;;;5062849;28;20489;-85
2024/04/07 10:23:34;;;;;;;0.50;0.40;;;20.60;96.50;;;;;;5060912;28;20467;-86
2024/04/07 10:26:04;;;;;;;1.33;0.43;;;20.40;96.70;;;;;;5063116;28;20440;-84
2024/04/07 10:28:45;;;;;;;0.50;0.30;;;20.40;96.60;;;;;;5062278;28;20453;-84
2024/04/07 10:31:16;;;;;;;0.50;0.30;;;20.50;95.80;;;;;;5060955;28;20492;-84
2024/04/07 10:33:47;;;;;;;0.60;0.40;;;20.50;95.80;;;;;;5060555;28;20543;-84
2024/04/07 10:36:20;;;;;;;0.77;0.43;;;20.90;95.60;;;;;;5060213;28;20891;-84
2024/04/07 10:38:49;;;;;;;0.97;0.63;;;21.10;94.90;;;;;;5059017;28;20460;-83
2024/04/07 10:41:18;;;;;;;0.70;0.50;;;21.10;94.40;;;;;;5059678;28;20441;-84
2024/04/07 10:43:44;;;;;;;0.50;0.37;;;21.00;94.40;;;;;;5058570;28;20440;-84
2024/04/07 10:46:13;;;;;;;0.50;0.40;;;21.20;95.50;;;;;;5059242;28;20962;-85
2024/04/07 10:48:40;;;;;;;0.70;0.40;;;21.60;96.00;;;;;;5058957;28;20459;-85
2024/04/07 10:51:09;;;;;;;0.50;0.33;;;22.10;95.10;;;;;;5056702;28;21003;-84
2024/04/07 10:53:36;;;;;;;0.50;0.40;;;22.30;93.60;;;;;;5056230;28;20469;-84
2024/04/07 10:56:06;;;;;;;0.50;0.30;;;22.40;93.00;;;;;;5056219;28;20434;-86
2024/04/07 10:58:32;;;;;;;0.50;0.40;;;22.40;92.80;;;;;;5056641;28;20597;-85
2024/04/07 11:01:00;;;;;;;0.50;0.40;;;22.30;92.60;;;;;;5056333;28;20985;-85
2024/04/07 11:03:28;;;;;;;0.50;0.40;;;22.20;92.90;;;;;;5064308;28;20449;-87
2024/04/07 11:06:00;;;;;;;0.50;0.40;;;22.20;92.90;;;;;;5070256;28;20503;-86
2024/04/07 11:08:26;;;;;;;0.63;0.50;;;22.80;92.70;;;;;;5070200;28;20461;-86
2024/04/07 11:11:02;;;;;;;0.60;0.50;;;23.70;91.10;;;;;;5070575;28;20501;-85
2024/04/07 11:13:29;;;;;;;0.50;0.40;;;24.20;89.50;;;;;;5070485;28;20479;-87
2024/04/07 11:15:57;;;;;;;0.50;0.40;;;24.40;90.00;;;;;;5070554;28;20527;-87
2024/04/07 11:18:24;;;;;;;0.50;0.40;;;24.60;85.90;;;;;;5070880;28;20482;-85
2024/04/07 11:20:59;;;;;;;0.70;0.70;;;24.70;85.50;;;;;;5070963;28;20452;-86
2024/04/07 11:23:27;;;;;;;2.60;1.33;;;24.90;85.10;;;;;;5069174;28;20436;-85
2024/04/07 11:25:55;;;;;;;0.80;0.80;;;24.80;83.10;;;;;;5071277;28;20961;-87
2024/04/07 11:28:24;;;;;;;2.30;0.60;;;24.40;84.40;;;;;;5070511;28;20459;-87
2024/04/07 11:30:52;;;;;;;1.03;0.90;;;24.20;83.40;;;;;;5070921;28;20435;-87
2024/04/07 11:33:18;;;;;;;0.90;0.50;;;23.80;87.30;;;;;;5070423;28;20502;-87
2024/04/07 11:35:45;;;;;;;0.50;0.40;;;23.90;86.50;;;;;;5075972;28;20433;-87
2024/04/07 11:38:13;;;;;;;0.50;0.30;;;24.20;85.60;;;;;;5075234;28;20463;-84
2024/04/07 11:40:41;;;;;;;0.50;0.40;;;24.50;87.60;;;;;;5071964;28;20442;-86
2024/04/07 11:43:08;;;;;;;0.60;0.50;;;24.60;84.00;;;;;;5065387;28;20436;-83
2024/04/07 11:45:36;;;;;;;0.50;0.40;;;24.80;83.70;;;;;;5065000;28;20441;-84
2024/04/07 11:48:02;;;;;;;0.70;0.40;;;25.10;84.50;;;;;;5065133;28;20454;-84
2024/04/07 11:50:30;;;;;;;0.50;0.40;;;25.10;80.40;;;;;;5065439;28;20816;-84
2024/04/07 11:52:56;;;;;;;1.13;0.50;;;25.50;81.30;;;;;;5065461;28;20475;-85
2024/04/07 11:55:26;;;;;;;3.30;0.60;;;25.50;78.50;;;;;;5064093;28;20441;-84
2024/04/07 11:57:54;;;;;;;0.70;0.40;;;25.30;81.30;;;;;;5065034;28;20234;-84
2024/04/07 12:00:20;;;;;;;0.50;0.40;;;24.90;77.80;;;;;;5064393;28;20515;-85
2024/04/07 12:02:46;;;;;;;0.50;0.30;;;24.90;80.20;;;;;;5064846;28;20440;-85
2024/04/07 12:05:13;;;;;;;0.50;0.30;;;24.70;79.10;;;;;;5065335;28;20531;-84
2024/04/07 12:07:39;;;;;;;3.93;1.00;;;24.40;79.20;;;;;;5063393;28;20220;-83
2024/04/07 12:10:06;;;;;;;0.63;0.40;;;24.30;79.60;;;;;;5064299;28;20435;-84
2024/04/07 12:12:35;;;;;;;0.50;0.40;;;24.40;82.20;;;;;;5063859;28;20227;-84
2024/04/07 12:15:00;;;;;;;0.67;0.67;;;24.90;80.40;;;;;;5063714;28;20936;-84
2024/04/07 12:17:28;;;;;;;0.57;0.40;;;25.30;78.10;;;;;;5065112;28;20541;-84
2024/04/07 12:19:57;;;;;;;0.80;0.80;;;26.00;77.20;;;;;;5064769;28;20224;-85
2024/04/07 12:22:24;;;;;;;0.50;0.40;;;26.50;73.60;;;;;;5064755;28;20433;-84
2024/04/07 12:24:51;;;;;;;0.50;0.30;;;26.60;72.40;;;;;;5063638;28;20447;-85
2024/04/07 12:27:19;;;;;;;0.70;0.70;;;26.10;70.20;;;;;;5064806;28;20509;-86
2024/04/07 12:29:47;;;;;;;3.43;0.80;;;25.00;68.90;;;;;;5063923;28;20449;-85
2024/04/07 12:32:14;;;;;;;0.50;0.40;;;24.20;72.50;;;;;;5063628;28;20528;-83
2024/04/07 12:34:39;;;;;;;2.10;0.70;;;23.80;74.00;;;;;;5064486;28;20438;-83
2024/04/07 12:37:06;;;;;;;0.60;0.50;;;23.40;71.00;;;;;;5061815;28;20441;-83
2024/04/07 12:39:32;;;;;;;1.27;0.50;;;23.30;73.20;;;;;;5062944;28;20206;-83
2024/04/07 12:42:01;;;;;;;0.50;0.30;;;23.10;71.90;;;;;;5061864;28;20524;-84
2024/04/07 12:44:26;;;;;;;0.50;0.40;;;23.70;71.60;;;;;;5064043;28;20433;-84
2024/04/07 12:46:54;;;;;;;0.63;0.40;;;24.40;71.10;;;;;;5062678;28;20430;-85
2024/04/07 12:49:22;;;;;;;0.63;0.40;;;24.50;69.40;;;;;;5063105;28;20707;-84